sensor_id;sensor_type;location;lat;lon;timestamp;P1;P2;P0
69746;PMS7003;57018;50.278;19.134;2024-01-11T00:00:33;205.00;178.00;109.00
69746;PMS7003;57018;50.278;19.134;2024-01-11T00:03:03;225.00;220.00;123.00
69746;PMS7003;57018;50.278;19.134;2024-01-11T00:05:33;251.00;204.50;116.00
69746;PMS7003;57018;50.278;19.134;2024-01-11T00:08:04;265.00;228.00;122.50
69746;PMS7003;57018;50.278;19.134;2024-01-11T00:10:34;244.00;217.00;118.00
69746;PMS7003;57018;50.278;19.134;2024-01-11T00:15:32;244.00;216.00;109.00
69746;PMS7003;57018;50.278;19.134;2024-01-11T00:18:03;238.00;200.50;116.50
69746;PMS7003;57018;50.278;19.134;2024-01-11T00:20:33;237.00;201.00;105.00
69746;PMS7003;57018;50.278;19.134;2024-01-11T00:23:04;212.50;187.00;114.00
69746;PMS7003;57018;50.278;19.134;2024-01-11T00:25:34;251.50;212.00;115.00
69746;PMS7003;57018;50.278;19.134;2024-01-11T00:28:04;240.50;209.00;111.50
69746;PMS7003;57018;50.278;19.134;2024-01-11T00:30:34;233.50;192.50;108.50
69746;PMS7003;57018;50.278;19.134;2024-01-11T00:33:04;201.00;178.00;109.00
69746;PMS7003;57018;50.278;19.134;2024-01-11T00:35:35;235.50;197.50;110.50
69746;PMS7003;57018;50.278;19.134;2024-01-11T00:38:05;248.00;218.00;119.00
69746;PMS7003;57018;50.278;19.134;2024-01-11T00:40:37;247.00;207.00;112.00
69746;PMS7003;57018;50.278;19.134;2024-01-11T00:43:08;225.00;197.00;106.50
69746;PMS7003;57018;50.278;19.134;2024-01-11T00:45:40;233.00;200.00;111.50
69746;PMS7003;57018;50.278;19.134;2024-01-11T00:48:10;205.00;193.00;115.00
69746;PMS7003;57018;50.278;19.134;2024-01-11T00:50:40;208.00;184.00;112.00
69746;PMS7003;57018;50.278;19.134;2024-01-11T00:53:10;229.00;196.00;111.00
69746;PMS7003;57018;50.278;19.134;2024-01-11T00:55:41;243.00;202.00;115.00
69746;PMS7003;57018;50.278;19.134;2024-01-11T00:58:11;197.00;170.00;94.50
69746;PMS7003;57018;50.278;19.134;2024-01-11T01:00:41;225.50;185.00;109.00
69746;PMS7003;57018;50.278;19.134;2024-01-11T01:03:10;206.50;183.50;102.50
69746;PMS7003;57018;50.278;19.134;2024-01-11T01:05:41;208.00;180.00;109.00
69746;PMS7003;57018;50.278;19.134;2024-01-11T01:08:11;232.00;197.50;101.50
69746;PMS7003;57018;50.278;19.134;2024-01-11T01:10:42;204.50;196.00;111.00
69746;PMS7003;57018;50.278;19.134;2024-01-11T01:13:12;205.00;175.00;109.00
69746;PMS7003;57018;50.278;19.134;2024-01-11T01:15:42;223.00;183.00;111.00
69746;PMS7003;57018;50.278;19.134;2024-01-11T01:18:12;227.50;191.00;112.00
69746;PMS7003;57018;50.278;19.134;2024-01-11T01:20:42;157.00;139.00;57.00
69746;PMS7003;57018;50.278;19.134;2024-01-11T01:23:15;184.00;165.00;106.00
69746;PMS7003;57018;50.278;19.134;2024-01-11T01:25:45;234.50;195.50;111.50
69746;PMS7003;57018;50.278;19.134;2024-01-11T01:28:15;121.00;88.00;36.00
69746;PMS7003;57018;50.278;19.134;2024-01-11T01:30:45;208.50;180.00;99.50
69746;PMS7003;57018;50.278;19.134;2024-01-11T01:33:17;231.00;202.00;112.00
69746;PMS7003;57018;50.278;19.134;2024-01-11T01:35:47;214.00;177.00;96.00
69746;PMS7003;57018;50.278;19.134;2024-01-11T01:38:17;194.50;175.50;92.00
69746;PMS7003;57018;50.278;19.134;2024-01-11T01:40:47;186.50;167.00;96.50
69746;PMS7003;57018;50.278;19.134;2024-01-11T01:45:45;184.00;167.00;104.50
69746;PMS7003;57018;50.278;19.134;2024-01-11T01:48:15;202.00;178.00;99.00
69746;PMS7003;57018;50.278;19.134;2024-01-11T01:50:45;211.00;185.00;108.50
69746;PMS7003;57018;50.278;19.134;2024-01-11T01:53:17;191.00;158.00;97.00
69746;PMS7003;57018;50.278;19.134;2024-01-11T01:55:49;180.50;168.00;99.50
69746;PMS7003;57018;50.278;19.134;2024-01-11T02:00:49;204.00;181.00;103.00
69746;PMS7003;57018;50.278;19.134;2024-01-11T02:03:21;205.00;175.00;103.00
69746;PMS7003;57018;50.278;19.134;2024-01-11T02:08:21;190.00;168.00;99.00
69746;PMS7003;57018;50.278;19.134;2024-01-11T02:10:55;180.00;153.00;85.00
69746;PMS7003;57018;50.278;19.134;2024-01-11T02:13:28;177.00;160.00;94.00
69746;PMS7003;57018;50.278;19.134;2024-01-11T02:15:59;187.00;162.00;93.00
69746;PMS7003;57018;50.278;19.134;2024-01-11T02:18:29;199.67;167.00;97.33
69746;PMS7003;57018;50.278;19.134;2024-01-11T02:21:00;210.33;179.67;93.00
69746;PMS7003;57018;50.278;19.134;2024-01-11T02:23:34;192.50;168.00;93.50
69746;PMS7003;57018;50.278;19.134;2024-01-11T02:26:12;181.00;160.00;94.00
69746;PMS7003;57018;50.278;19.134;2024-01-11T02:28:46;196.00;170.50;101.00
69746;PMS7003;57018;50.278;19.134;2024-01-11T02:31:16;181.00;159.00;91.00
69746;PMS7003;57018;50.278;19.134;2024-01-11T02:33:46;183.00;157.50;91.00
69746;PMS7003;57018;50.278;19.134;2024-01-11T02:36:15;198.00;163.00;94.00
69746;PMS7003;57018;50.278;19.134;2024-01-11T02:38:47;193.00;166.00;89.00
69746;PMS7003;57018;50.278;19.134;2024-01-11T02:41:18;200.00;161.00;94.00
69746;PMS7003;57018;50.278;19.134;2024-01-11T02:43:49;202.00;172.00;97.00
69746;PMS7003;57018;50.278;19.134;2024-01-11T02:46:20;201.00;181.00;99.00
69746;PMS7003;57018;50.278;19.134;2024-01-11T02:48:50;174.50;151.00;89.00
69746;PMS7003;57018;50.278;19.134;2024-01-11T02:51:20;191.50;160.00;92.50
69746;PMS7003;57018;50.278;19.134;2024-01-11T02:53:50;202.00;168.00;90.00
69746;PMS7003;57018;50.278;19.134;2024-01-11T02:56:20;187.00;163.00;97.00
69746;PMS7003;57018;50.278;19.134;2024-01-11T02:58:50;172.00;163.00;91.00
69746;PMS7003;57018;50.278;19.134;2024-01-11T03:01:20;190.00;169.00;100.00
69746;PMS7003;57018;50.278;19.134;2024-01-11T03:03:50;202.00;176.50;101.50
69746;PMS7003;57018;50.278;19.134;2024-01-11T03:06:20;195.50;173.50;94.00
69746;PMS7003;57018;50.278;19.134;2024-01-11T03:08:52;198.50;167.00;89.50
69746;PMS7003;57018;50.278;19.134;2024-01-11T03:11:22;198.00;171.00;99.00
69746;PMS7003;57018;50.278;19.134;2024-01-11T03:13:52;177.50;148.00;81.00
69746;PMS7003;57018;50.278;19.134;2024-01-11T03:16:23;221.00;179.50;100.00
69746;PMS7003;57018;50.278;19.134;2024-01-11T03:18:53;184.00;154.00;90.00
69746;PMS7003;57018;50.278;19.134;2024-01-11T03:21:23;220.50;183.50;101.00
69746;PMS7003;57018;50.278;19.134;2024-01-11T03:23:53;193.00;172.00;102.00
69746;PMS7003;57018;50.278;19.134;2024-01-11T03:26:23;177.00;157.00;93.00
69746;PMS7003;57018;50.278;19.134;2024-01-11T03:28:53;199.00;175.00;100.00
69746;PMS7003;57018;50.278;19.134;2024-01-11T03:31:23;158.50;146.50;86.50
69746;PMS7003;57018;50.278;19.134;2024-01-11T03:33:53;118.00;106.00;61.00
69746;PMS7003;57018;50.278;19.134;2024-01-11T03:36:24;185.00;163.00;95.50
69746;PMS7003;57018;50.278;19.134;2024-01-11T03:38:54;191.50;173.00;96.50
69746;PMS7003;57018;50.278;19.134;2024-01-11T03:41:24;188.00;155.00;91.00
69746;PMS7003;57018;50.278;19.134;2024-01-11T03:43:54;193.00;163.00;91.00
69746;PMS7003;57018;50.278;19.134;2024-01-11T03:46:24;174.00;151.33;83.00
69746;PMS7003;57018;50.278;19.134;2024-01-11T03:48:54;163.00;145.00;93.00
69746;PMS7003;57018;50.278;19.134;2024-01-11T03:51:24;177.00;151.00;82.00
69746;PMS7003;57018;50.278;19.134;2024-01-11T03:53:56;192.00;171.00;100.00
69746;PMS7003;57018;50.278;19.134;2024-01-11T03:56:27;180.50;148.00;80.00
69746;PMS7003;57018;50.278;19.134;2024-01-11T03:58:57;218.33;193.00;112.33
69746;PMS7003;57018;50.278;19.134;2024-01-11T04:01:26;183.50;153.50;95.00
69746;PMS7003;57018;50.278;19.134;2024-01-11T04:03:59;167.50;143.50;71.00
69746;PMS7003;57018;50.278;19.134;2024-01-11T04:06:29;198.00;173.00;102.50
69746;PMS7003;57018;50.278;19.134;2024-01-11T04:08:59;210.00;178.00;108.00
69746;PMS7003;57018;50.278;19.134;2024-01-11T04:11:29;190.00;170.50;92.00
69746;PMS7003;57018;50.278;19.134;2024-01-11T04:13:59;220.00;186.00;109.00
69746;PMS7003;57018;50.278;19.134;2024-01-11T04:16:28;151.00;139.00;73.00
69746;PMS7003;57018;50.278;19.134;2024-01-11T04:19:00;186.50;164.00;94.00
69746;PMS7003;57018;50.278;19.134;2024-01-11T04:21:30;226.00;190.00;106.00
69746;PMS7003;57018;50.278;19.134;2024-01-11T04:24:01;178.00;158.50;99.00
69746;PMS7003;57018;50.278;19.134;2024-01-11T04:26:32;117.00;95.00;39.00
69746;PMS7003;57018;50.278;19.134;2024-01-11T04:29:02;181.00;166.00;91.00
69746;PMS7003;57018;50.278;19.134;2024-01-11T04:31:33;182.50;160.00;89.00
69746;PMS7003;57018;50.278;19.134;2024-01-11T04:34:03;199.00;172.00;100.00
69746;PMS7003;57018;50.278;19.134;2024-01-11T04:36:33;186.00;159.00;88.00
69746;PMS7003;57018;50.278;19.134;2024-01-11T04:39:06;173.50;154.50;86.50
69746;PMS7003;57018;50.278;19.134;2024-01-11T04:41:39;181.00;168.00;97.00
69746;PMS7003;57018;50.278;19.134;2024-01-11T04:44:09;171.50;143.00;75.50
69746;PMS7003;57018;50.278;19.134;2024-01-11T04:46:39;188.50;162.50;95.00
69746;PMS7003;57018;50.278;19.134;2024-01-11T04:49:09;185.50;169.00;99.50
69746;PMS7003;57018;50.278;19.134;2024-01-11T04:54:08;195.50;164.50;96.50
69746;PMS7003;57018;50.278;19.134;2024-01-11T04:56:38;168.00;147.00;96.00
69746;PMS7003;57018;50.278;19.134;2024-01-11T04:59:08;190.00;163.00;98.50
69746;PMS7003;57018;50.278;19.134;2024-01-11T05:01:42;193.00;168.67;101.00
69746;PMS7003;57018;50.278;19.134;2024-01-11T05:04:13;191.00;170.00;99.50
69746;PMS7003;57018;50.278;19.134;2024-01-11T05:06:43;206.00;179.00;104.50
69746;PMS7003;57018;50.278;19.134;2024-01-11T05:09:15;184.00;173.00;101.00
69746;PMS7003;57018;50.278;19.134;2024-01-11T05:11:45;174.00;164.00;104.00
69746;PMS7003;57018;50.278;19.134;2024-01-11T05:14:15;193.00;175.00;100.00
69746;PMS7003;57018;50.278;19.134;2024-01-11T05:16:45;158.00;145.00;97.00
69746;PMS7003;57018;50.278;19.134;2024-01-11T05:19:15;185.50;161.00;86.50
69746;PMS7003;57018;50.278;19.134;2024-01-11T05:21:45;170.50;146.00;83.00
69746;PMS7003;57018;50.278;19.134;2024-01-11T05:24:21;175.00;150.00;85.00
69746;PMS7003;57018;50.278;19.134;2024-01-11T05:26:53;193.00;160.00;93.50
69746;PMS7003;57018;50.278;19.134;2024-01-11T05:29:25;160.00;157.00;94.00
69746;PMS7003;57018;50.278;19.134;2024-01-11T05:31:58;171.50;151.00;89.50
69746;PMS7003;57018;50.278;19.134;2024-01-11T05:34:30;187.00;162.00;94.00
69746;PMS7003;57018;50.278;19.134;2024-01-11T05:37:00;175.50;154.00;89.00
69746;PMS7003;57018;50.278;19.134;2024-01-11T05:39:32;186.00;157.00;81.00
69746;PMS7003;57018;50.278;19.134;2024-01-11T05:42:02;193.00;169.00;101.00
69746;PMS7003;57018;50.278;19.134;2024-01-11T05:44:34;172.00;148.00;94.00
69746;PMS7003;57018;50.278;19.134;2024-01-11T05:47:04;182.50;161.00;91.00
69746;PMS7003;57018;50.278;19.134;2024-01-11T05:49:34;176.50;158.50;84.50
69746;PMS7003;57018;50.278;19.134;2024-01-11T05:52:05;184.00;160.00;88.00
69746;PMS7003;57018;50.278;19.134;2024-01-11T05:57:04;169.00;145.00;79.00
69746;PMS7003;57018;50.278;19.134;2024-01-11T05:59:34;202.00;175.00;100.00
69746;PMS7003;57018;50.278;19.134;2024-01-11T06:02:04;183.50;147.50;82.00
69746;PMS7003;57018;50.278;19.134;2024-01-11T06:04:34;142.00;123.50;65.50
69746;PMS7003;57018;50.278;19.134;2024-01-11T06:07:04;177.50;149.50;81.50
69746;PMS7003;57018;50.278;19.134;2024-01-11T06:09:34;163.50;137.50;88.50
69746;PMS7003;57018;50.278;19.134;2024-01-11T06:12:04;178.00;148.00;85.00
69746;PMS7003;57018;50.278;19.134;2024-01-11T06:14:35;180.00;157.75;91.25
69746;PMS7003;57018;50.278;19.134;2024-01-11T06:17:06;172.00;160.00;91.00
69746;PMS7003;57018;50.278;19.134;2024-01-11T06:19:38;161.00;137.50;80.00
69746;PMS7003;57018;50.278;19.134;2024-01-11T06:22:08;142.00;129.00;84.00
69746;PMS7003;57018;50.278;19.134;2024-01-11T06:24:37;177.67;152.67;91.67
69746;PMS7003;57018;50.278;19.134;2024-01-11T06:27:07;179.00;143.50;83.50
69746;PMS7003;57018;50.278;19.134;2024-01-11T06:29:37;184.00;154.00;85.00
69746;PMS7003;57018;50.278;19.134;2024-01-11T06:32:07;184.00;154.00;91.00
69746;PMS7003;57018;50.278;19.134;2024-01-11T06:34:40;174.50;149.50;88.50
69746;PMS7003;57018;50.278;19.134;2024-01-11T06:37:12;171.00;148.00;82.00
69746;PMS7003;57018;50.278;19.134;2024-01-11T06:39:42;192.00;165.00;102.00
69746;PMS7003;57018;50.278;19.134;2024-01-11T06:42:12;180.00;160.00;88.00
69746;PMS7003;57018;50.278;19.134;2024-01-11T06:44:42;190.00;160.00;91.00
69746;PMS7003;57018;50.278;19.134;2024-01-11T06:47:11;172.00;151.00;86.00
69746;PMS7003;57018;50.278;19.134;2024-01-11T06:49:48;169.00;154.00;90.00
69746;PMS7003;57018;50.278;19.134;2024-01-11T06:52:18;178.00;156.50;86.50
69746;PMS7003;57018;50.278;19.134;2024-01-11T06:54:48;141.00;121.00;79.00
69746;PMS7003;57018;50.278;19.134;2024-01-11T06:57:21;168.67;149.00;86.00
69746;PMS7003;57018;50.278;19.134;2024-01-11T06:59:51;133.00;111.00;60.00
69746;PMS7003;57018;50.278;19.134;2024-01-11T07:02:21;159.50;134.00;79.00
69746;PMS7003;57018;50.278;19.134;2024-01-11T07:04:51;159.00;135.00;76.00
69746;PMS7003;57018;50.278;19.134;2024-01-11T07:07:21;131.00;121.00;74.67
69746;PMS7003;57018;50.278;19.134;2024-01-11T07:09:51;146.50;128.00;75.00
69746;PMS7003;57018;50.278;19.134;2024-01-11T07:12:22;152.50;142.00;80.00
69746;PMS7003;57018;50.278;19.134;2024-01-11T07:14:52;139.00;117.00;58.00
69746;PMS7003;57018;50.278;19.134;2024-01-11T07:17:22;181.00;154.00;85.00
69746;PMS7003;57018;50.278;19.134;2024-01-11T07:19:52;146.50;127.00;79.50
69746;PMS7003;57018;50.278;19.134;2024-01-11T07:22:22;149.50;128.50;77.00
69746;PMS7003;57018;50.278;19.134;2024-01-11T07:24:52;172.00;142.00;85.00
69746;PMS7003;57018;50.278;19.134;2024-01-11T07:27:22;169.00;149.00;86.50
69746;PMS7003;57018;50.278;19.134;2024-01-11T07:29:54;164.00;147.50;81.50
69746;PMS7003;57018;50.278;19.134;2024-01-11T07:34:52;141.50;117.00;63.50
69746;PMS7003;57018;50.278;19.134;2024-01-11T07:37:22;175.00;149.67;97.67
69746;PMS7003;57018;50.278;19.134;2024-01-11T07:39:54;164.50;143.00;89.00
69746;PMS7003;57018;50.278;19.134;2024-01-11T07:42:25;152.50;145.50;90.50
69746;PMS7003;57018;50.278;19.134;2024-01-11T07:44:55;160.00;144.00;88.00
69746;PMS7003;57018;50.278;19.134;2024-01-11T07:47:25;154.00;130.00;82.00
69746;PMS7003;57018;50.278;19.134;2024-01-11T07:49:55;162.00;145.00;85.00
69746;PMS7003;57018;50.278;19.134;2024-01-11T07:52:25;172.00;148.00;85.00
69746;PMS7003;57018;50.278;19.134;2024-01-11T07:54:55;152.50;134.00;78.00
69746;PMS7003;57018;50.278;19.134;2024-01-11T07:57:33;151.00;133.50;82.50
69746;PMS7003;57018;50.278;19.134;2024-01-11T08:00:04;162.50;146.50;84.50
69746;PMS7003;57018;50.278;19.134;2024-01-11T08:02:35;105.50;84.50;47.00
69746;PMS7003;57018;50.278;19.134;2024-01-11T08:05:07;128.50;116.00;64.00
69746;PMS7003;57018;50.278;19.134;2024-01-11T08:07:37;104.00;84.00;55.00
69746;PMS7003;57018;50.278;19.134;2024-01-11T08:10:09;100.00;78.00;48.67
69746;PMS7003;57018;50.278;19.134;2024-01-11T08:12:39;107.50;93.50;54.00
69746;PMS7003;57018;50.278;19.134;2024-01-11T08:15:09;97.50;73.00;46.00
69746;PMS7003;57018;50.278;19.134;2024-01-11T08:17:43;99.00;73.00;48.00
69746;PMS7003;57018;50.278;19.134;2024-01-11T08:20:13;81.50;63.00;38.00
69746;PMS7003;57018;50.278;19.134;2024-01-11T08:22:43;93.00;70.00;42.00
69746;PMS7003;57018;50.278;19.134;2024-01-11T08:25:14;93.00;73.00;46.00
69746;PMS7003;57018;50.278;19.134;2024-01-11T08:27:46;89.00;70.00;46.00
69746;PMS7003;57018;50.278;19.134;2024-01-11T08:30:17;85.00;65.00;42.00
69746;PMS7003;57018;50.278;19.134;2024-01-11T08:32:50;91.00;69.00;45.00
69746;PMS7003;57018;50.278;19.134;2024-01-11T08:35:20;85.50;66.00;43.50
69746;PMS7003;57018;50.278;19.134;2024-01-11T08:37:50;89.00;68.00;43.00
69746;PMS7003;57018;50.278;19.134;2024-01-11T08:40:19;81.50;62.50;42.00
69746;PMS7003;57018;50.278;19.134;2024-01-11T08:42:49;80.00;66.00;40.00
69746;PMS7003;57018;50.278;19.134;2024-01-11T08:45:19;79.00;58.00;39.00
69746;PMS7003;57018;50.278;19.134;2024-01-11T08:47:49;77.00;61.00;38.00
69746;PMS7003;57018;50.278;19.134;2024-01-11T08:50:19;72.00;59.00;39.00
69746;PMS7003;57018;50.278;19.134;2024-01-11T08:52:49;68.50;53.50;32.00
69746;PMS7003;57018;50.278;19.134;2024-01-11T08:55:22;64.00;52.00;33.50
69746;PMS7003;57018;50.278;19.134;2024-01-11T08:57:53;71.00;55.00;37.00
69746;PMS7003;57018;50.278;19.134;2024-01-11T09:00:25;73.33;58.33;36.00
69746;PMS7003;57018;50.278;19.134;2024-01-11T09:02:56;76.33;59.67;38.33
69746;PMS7003;57018;50.278;19.134;2024-01-11T09:05:26;69.00;56.00;38.00
69746;PMS7003;57018;50.278;19.134;2024-01-11T09:07:56;76.00;60.00;38.00
69746;PMS7003;57018;50.278;19.134;2024-01-11T09:10:26;74.00;60.00;38.00
69746;PMS7003;57018;50.278;19.134;2024-01-11T09:12:56;73.00;58.50;36.50
69746;PMS7003;57018;50.278;19.134;2024-01-11T09:15:26;77.00;61.00;37.00
69746;PMS7003;57018;50.278;19.134;2024-01-11T09:17:56;70.50;58.00;36.50
69746;PMS7003;57018;50.278;19.134;2024-01-11T09:20:27;61.00;49.00;33.00
69746;PMS7003;57018;50.278;19.134;2024-01-11T09:23:00;75.00;60.00;37.00
69746;PMS7003;57018;50.278;19.134;2024-01-11T09:25:31;71.00;58.00;37.00
69746;PMS7003;57018;50.278;19.134;2024-01-11T09:28:02;60.00;51.00;33.00
69746;PMS7003;57018;50.278;19.134;2024-01-11T09:30:32;70.50;57.50;36.00
69746;PMS7003;57018;50.278;19.134;2024-01-11T09:33:03;67.33;53.00;33.33
69746;PMS7003;57018;50.278;19.134;2024-01-11T09:38:03;64.00;52.00;35.00
69746;PMS7003;57018;50.278;19.134;2024-01-11T09:40:33;63.00;52.00;33.00
69746;PMS7003;57018;50.278;19.134;2024-01-11T09:43:05;66.00;49.00;32.00
69746;PMS7003;57018;50.278;19.134;2024-01-11T09:45:37;65.00;49.00;32.00
69746;PMS7003;57018;50.278;19.134;2024-01-11T09:48:07;64.00;51.50;30.00
69746;PMS7003;57018;50.278;19.134;2024-01-11T09:50:41;66.67;53.00;35.00
69746;PMS7003;57018;50.278;19.134;2024-01-11T09:53:12;72.00;56.00;37.00
69746;PMS7003;57018;50.278;19.134;2024-01-11T09:55:42;59.50;51.00;32.00
69746;PMS7003;57018;50.278;19.134;2024-01-11T10:00:42;62.00;51.00;33.00
69746;PMS7003;57018;50.278;19.134;2024-01-11T10:03:12;63.00;48.00;31.50
69746;PMS7003;57018;50.278;19.134;2024-01-11T10:05:43;64.00;47.00;31.00
69746;PMS7003;57018;50.278;19.134;2024-01-11T10:08:14;61.33;51.33;35.33
69746;PMS7003;57018;50.278;19.134;2024-01-11T10:10:45;66.00;53.50;33.50
69746;PMS7003;57018;50.278;19.134;2024-01-11T10:13:18;70.00;53.00;32.00
69746;PMS7003;57018;50.278;19.134;2024-01-11T10:15:53;67.00;52.50;31.50
69746;PMS7003;57018;50.278;19.134;2024-01-11T10:18:40;70.33;57.33;36.33
69746;PMS7003;57018;50.278;19.134;2024-01-11T10:21:11;78.00;63.00;41.00
69746;PMS7003;57018;50.278;19.134;2024-01-11T10:23:43;75.33;60.33;38.00
69746;PMS7003;57018;50.278;19.134;2024-01-11T10:26:16;77.67;63.00;39.67
69746;PMS7003;57018;50.278;19.134;2024-01-11T10:28:48;70.00;57.00;36.50
69746;PMS7003;57018;50.278;19.134;2024-01-11T10:31:18;72.00;58.00;39.00
69746;PMS7003;57018;50.278;19.134;2024-01-11T10:33:54;77.00;65.00;38.00
69746;PMS7003;57018;50.278;19.134;2024-01-11T10:36:25;82.50;63.00;41.00
69746;PMS7003;57018;50.278;19.134;2024-01-11T10:38:58;60.00;46.50;30.00
69746;PMS7003;57018;50.278;19.134;2024-01-11T10:41:34;83.00;61.00;41.00
69746;PMS7003;57018;50.278;19.134;2024-01-11T10:44:11;69.00;55.50;35.50
69746;PMS7003;57018;50.278;19.134;2024-01-11T10:46:48;73.67;55.33;36.67
69746;PMS7003;57018;50.278;19.134;2024-01-11T10:49:19;68.00;56.00;37.00
69746;PMS7003;57018;50.278;19.134;2024-01-11T10:51:52;66.00;54.00;32.00
69746;PMS7003;57018;50.278;19.134;2024-01-11T10:54:27;64.00;51.00;31.00
69746;PMS7003;57018;50.278;19.134;2024-01-11T10:57:00;70.33;55.67;35.67
69746;PMS7003;57018;50.278;19.134;2024-01-11T10:59:32;66.00;55.50;37.00
69746;PMS7003;57018;50.278;19.134;2024-01-11T11:02:05;73.50;58.00;37.00
69746;PMS7003;57018;50.278;19.134;2024-01-11T11:04:39;69.67;54.00;35.33
69746;PMS7003;57018;50.278;19.134;2024-01-11T11:07:10;70.00;51.00;34.00
69746;PMS7003;57018;50.278;19.134;2024-01-11T11:09:42;74.00;59.00;38.00
69746;PMS7003;57018;50.278;19.134;2024-01-11T11:12:12;71.00;57.00;38.00
69746;PMS7003;57018;50.278;19.134;2024-01-11T11:14:44;70.33;53.00;35.33
69746;PMS7003;57018;50.278;19.134;2024-01-11T11:17:16;75.00;59.00;38.00
69746;PMS7003;57018;50.278;19.134;2024-01-11T11:19:47;64.00;53.00;35.00
69746;PMS7003;57018;50.278;19.134;2024-01-11T11:22:20;62.00;49.00;33.00
69746;PMS7003;57018;50.278;19.134;2024-01-11T11:24:53;66.00;54.00;35.00
69746;PMS7003;57018;50.278;19.134;2024-01-11T11:27:34;58.00;47.50;32.00
69746;PMS7003;57018;50.278;19.134;2024-01-11T11:30:05;61.75;48.50;32.00
69746;PMS7003;57018;50.278;19.134;2024-01-11T11:32:37;60.00;50.00;32.00
69746;PMS7003;57018;50.278;19.134;2024-01-11T11:35:11;69.00;53.00;33.50
69746;PMS7003;57018;50.278;19.134;2024-01-11T11:37:42;65.33;53.00;34.00
69746;PMS7003;57018;50.278;19.134;2024-01-11T11:40:15;64.00;52.50;32.50
69746;PMS7003;57018;50.278;19.134;2024-01-11T11:42:45;66.00;51.00;31.00
69746;PMS7003;57018;50.278;19.134;2024-01-11T11:45:25;62.00;47.50;30.00
69746;PMS7003;57018;50.278;19.134;2024-01-11T11:47:56;62.50;50.50;33.00
69746;PMS7003;57018;50.278;19.134;2024-01-11T11:50:27;49.00;45.00;29.00
69746;PMS7003;57018;50.278;19.134;2024-01-11T11:52:59;61.50;46.50;30.00
69746;PMS7003;57018;50.278;19.134;2024-01-11T11:55:29;59.00;48.00;29.00
69746;PMS7003;57018;50.278;19.134;2024-01-11T11:58:00;59.50;49.50;34.00
69746;PMS7003;57018;50.278;19.134;2024-01-11T12:00:31;21.00;14.00;0.00
69746;PMS7003;57018;50.278;19.134;2024-01-11T12:03:02;63.00;51.00;32.00
69746;PMS7003;57018;50.278;19.134;2024-01-11T12:05:35;64.00;51.00;31.00
69746;PMS7003;57018;50.278;19.134;2024-01-11T12:08:07;62.00;50.00;31.00
69746;PMS7003;57018;50.278;19.134;2024-01-11T12:10:37;62.00;47.00;31.00
69746;PMS7003;57018;50.278;19.134;2024-01-11T12:13:09;59.00;47.00;31.00
69746;PMS7003;57018;50.278;19.134;2024-01-11T12:15:40;66.00;50.00;31.00
69746;PMS7003;57018;50.278;19.134;2024-01-11T12:18:10;64.00;52.00;33.00
69746;PMS7003;57018;50.278;19.134;2024-01-11T12:20:40;47.00;37.00;22.00
69746;PMS7003;57018;50.278;19.134;2024-01-11T12:23:10;64.50;51.00;31.50
69746;PMS7003;57018;50.278;19.134;2024-01-11T12:25:41;70.00;54.50;34.00
69746;PMS7003;57018;50.278;19.134;2024-01-11T12:28:14;71.00;58.50;37.00
69746;PMS7003;57018;50.278;19.134;2024-01-11T12:33:14;70.67;58.00;37.00
69746;PMS7003;57018;50.278;19.134;2024-01-11T12:35:45;71.50;54.50;36.50
69746;PMS7003;57018;50.278;19.134;2024-01-11T12:38:15;64.00;55.00;35.00
69746;PMS7003;57018;50.278;19.134;2024-01-11T12:40:48;67.00;53.00;34.00
69746;PMS7003;57018;50.278;19.134;2024-01-11T12:43:23;69.50;54.00;36.00
69746;PMS7003;57018;50.278;19.134;2024-01-11T12:45:57;69.00;53.50;35.00
69746;PMS7003;57018;50.278;19.134;2024-01-11T12:48:29;62.00;53.00;34.00
69746;PMS7003;57018;50.278;19.134;2024-01-11T12:51:03;66.00;53.00;34.00
69746;PMS7003;57018;50.278;19.134;2024-01-11T12:53:37;70.00;57.00;37.00
69746;PMS7003;57018;50.278;19.134;2024-01-11T12:56:09;62.00;52.00;33.00
69746;PMS7003;57018;50.278;19.134;2024-01-11T12:58:42;74.50;56.50;35.00
69746;PMS7003;57018;50.278;19.134;2024-01-11T13:01:15;72.00;56.00;36.00
69746;PMS7003;57018;50.278;19.134;2024-01-11T13:03:46;69.00;57.00;35.00
69746;PMS7003;57018;50.278;19.134;2024-01-11T13:06:16;73.50;58.00;37.00
69746;PMS7003;57018;50.278;19.134;2024-01-11T13:08:51;62.50;54.00;37.00
69746;PMS7003;57018;50.278;19.134;2024-01-11T13:11:21;73.00;56.50;37.50
69746;PMS7003;57018;50.278;19.134;2024-01-11T13:13:52;64.00;51.00;30.00
69746;PMS7003;57018;50.278;19.134;2024-01-11T13:16:25;70.00;56.00;36.00
69746;PMS7003;57018;50.278;19.134;2024-01-11T13:19:01;69.00;53.50;32.00
69746;PMS7003;57018;50.278;19.134;2024-01-11T13:21:31;70.00;55.00;37.00
69746;PMS7003;57018;50.278;19.134;2024-01-11T13:24:02;69.00;55.00;36.00
69746;PMS7003;57018;50.278;19.134;2024-01-11T13:26:34;71.00;55.00;38.00
69746;PMS7003;57018;50.278;19.134;2024-01-11T13:29:05;72.67;58.33;36.67
69746;PMS7003;57018;50.278;19.134;2024-01-11T13:31:35;72.00;56.00;36.50
69746;PMS7003;57018;50.278;19.134;2024-01-11T13:34:05;76.00;60.00;38.00
69746;PMS7003;57018;50.278;19.134;2024-01-11T13:36:35;74.00;57.00;36.00
69746;PMS7003;57018;50.278;19.134;2024-01-11T13:39:06;74.00;59.00;38.00
69746;PMS7003;57018;50.278;19.134;2024-01-11T13:41:36;71.00;57.00;36.00
69746;PMS7003;57018;50.278;19.134;2024-01-11T13:44:11;68.00;52.00;32.00
69746;PMS7003;57018;50.278;19.134;2024-01-11T13:46:41;71.00;57.00;35.00
69746;PMS7003;57018;50.278;19.134;2024-01-11T13:49:12;65.50;52.50;33.00
69746;PMS7003;57018;50.278;19.134;2024-01-11T13:51:43;56.00;47.00;35.00
69746;PMS7003;57018;50.278;19.134;2024-01-11T13:54:14;65.00;50.00;30.50
69746;PMS7003;57018;50.278;19.134;2024-01-11T13:56:44;59.00;46.00;30.00
69746;PMS7003;57018;50.278;19.134;2024-01-11T13:59:18;66.00;49.00;31.00
69746;PMS7003;57018;50.278;19.134;2024-01-11T14:01:48;73.50;56.50;32.50
69746;PMS7003;57018;50.278;19.134;2024-01-11T14:04:18;64.00;51.00;33.00